Barcelona, Spain

12:36 AM CET on November 24, 2014 (GMT +0100)
Viladecans | Change Station
CLOSE
Current Station
Personal Weather Station
Location: Viladecans, CATALUñA, CATALONIA
Elevation: 100 ft
Nearby Weather Stations

Elev 100 ft 41.32 °N, 2.01 °E | Updated 23 seconds ago

Partly Cloudy
Partly Cloudy
65.1 °F
Feels Like 65.1 °F
N
0.0
Wind Variable Wind from NE
Gusts 7.0 mph

Today
High -- | Low -- °F
--% Chance of Precip.
Yesterday
High -- | Low -- °F
Precip. -- in
7:50 AM 5:26 PM
Waxing Crescent, 3% visible
Pressure 30.04 in
Visibility 6.2 miles
Clouds Few 1000 ft
Dew Point 58 °F
Humidity 79%
Rainfall 0.00 in
Snow Depth Not available.
UV 0 out of 12
Pollen Not available.
Air Quality Not available.
Flu Activity Not available.
METAR LEBL 232330Z VRB02KT 9999 FEW010 18/15 Q1017 NOSIG

More Conditions Fewer Conditions

Pressure 30.04 in
Visibility 6.2 miles
Clouds Few 1000 ft
Dew Point 58 °F
Humidity 79%
Rainfall 0.00 in
Snow Depth Not available.
UV 0 out of 12
Pollen Not available.
Air Quality Not available.
Flu Activity Not available.
METAR LEBL 232330Z VRB02KT 9999 FEW010 18/15 Q1017 NOSIG

More Conditions Fewer Conditions

10-Day Weather Forecast

Almanac

Astronomy

Nov. 24, 2014 Rise Set
Actual Time
Civil Twilight
Nautical Twilight
Astronomical Twilight
Moon
Length Of Visible Light
Length of Day
Tomorrow will be .
, % of the Moon is Illuminated

Today's Extremes

Country Highs Country Lows

Community

WunderPhotos

Upload Photos

1,773,204 photos uploaded!

WunderBlogs® & News

Nearby

Air Quality

  Air Quality AQ Index Pollutant
Not available.

Snow Depth

Station Depth Elevation

Earthquake Activity

City Distance Mag. Time & Date
Minimum magnitude displayed is 2.5.

Coastal Water Temperatures

Place Temperature

Nearby Weather Stations